sensor_id;sensor_type;location;lat;lon;timestamp;pressure;altitude;pressure_sealevel;temperature;humidity
30182;BME280;16990;49.056;9.240;2022-09-13T00:00:28;98342.78;;;16.08;77.33
30182;BME280;16990;49.056;9.240;2022-09-13T00:02:55;98344.94;;;16.06;77.14
30182;BME280;16990;49.056;9.240;2022-09-13T00:05:22;98328.53;;;16.03;77.30
30182;BME280;16990;49.056;9.240;2022-09-13T00:07:50;98339.00;;;16.09;77.37
30182;BME280;16990;49.056;9.240;2022-09-13T00:10:16;98324.16;;;16.12;77.25
30182;BME280;16990;49.056;9.240;2022-09-13T00:12:43;98332.78;;;16.14;76.79
30182;BME280;16990;49.056;9.240;2022-09-13T00:15:10;98337.94;;;16.05;77.33
30182;BME280;16990;49.056;9.240;2022-09-13T00:17:37;98327.41;;;16.09;77.17
30182;BME280;16990;49.056;9.240;2022-09-13T00:20:04;98322.06;;;15.99;77.59
30182;BME280;16990;49.056;9.240;2022-09-13T00:22:31;98316.44;;;15.95;77.59
30182;BME280;16990;49.056;9.240;2022-09-13T00:24:59;98321.84;;;15.95;77.65
30182;BME280;16990;49.056;9.240;2022-09-13T00:27:26;98314.84;;;15.89;78.04
30182;BME280;16990;49.056;9.240;2022-09-13T00:29:52;98311.09;;;15.85;78.18
30182;BME280;16990;49.056;9.240;2022-09-13T00:32:19;98312.19;;;15.84;78.46
30182;BME280;16990;49.056;9.240;2022-09-13T00:34:45;98311.09;;;15.85;77.93
30182;BME280;16990;49.056;9.240;2022-09-13T00:37:12;98315.94;;;15.88;78.06
30182;BME280;16990;49.056;9.240;2022-09-13T00:39:39;98318.69;;;15.83;78.37
30182;BME280;16990;49.056;9.240;2022-09-13T00:42:09;98318.63;;;15.93;78.26
30182;BME280;16990;49.056;9.240;2022-09-13T00:44:55;98317.22;;;16.01;77.87
30182;BME280;16990;49.056;9.240;2022-09-13T00:47:26;98313.81;;;15.80;78.47
30182;BME280;16990;49.056;9.240;2022-09-13T00:49:58;98298.78;;;15.73;78.23
30182;BME280;16990;49.056;9.240;2022-09-13T00:52:28;98307.13;;;15.67;79.28
30182;BME280;16990;49.056;9.240;2022-09-13T00:54:59;98289.66;;;15.59;80.03
30182;BME280;16990;49.056;9.240;2022-09-13T00:57:30;98284.53;;;15.58;79.79
30182;BME280;16990;49.056;9.240;2022-09-13T01:00:01;98290.72;;;15.58;79.88
30182;BME280;16990;49.056;9.240;2022-09-13T01:02:33;98290.69;;;15.63;79.73
30182;BME280;16990;49.056;9.240;2022-09-13T01:05:01;98290.19;;;15.61;79.61
30182;BME280;16990;49.056;9.240;2022-09-13T01:07:28;98288.31;;;15.57;79.69
30182;BME280;16990;49.056;9.240;2022-09-13T01:09:55;98293.72;;;15.57;79.59
30182;BME280;16990;49.056;9.240;2022-09-13T01:12:31;98291.78;;;15.62;79.54
30182;BME280;16990;49.056;9.240;2022-09-13T01:15:03;98303.09;;;15.64;79.19
30182;BME280;16990;49.056;9.240;2022-09-13T01:17:31;98300.38;;;15.69;78.94
30182;BME280;16990;49.056;9.240;2022-09-13T01:19:58;98295.59;;;15.61;79.35
30182;BME280;16990;49.056;9.240;2022-09-13T01:22:49;98302.84;;;15.61;78.94
30182;BME280;16990;49.056;9.240;2022-09-13T01:29:04;98298.28;;;15.56;79.04
30182;BME280;16990;49.056;9.240;2022-09-13T01:31:39;98294.78;;;15.56;79.24
30182;BME280;16990;49.056;9.240;2022-09-13T01:34:18;98297.47;;;15.56;79.19
30182;BME280;16990;49.056;9.240;2022-09-13T01:37:03;98295.59;;;15.51;79.57
30182;BME280;16990;49.056;9.240;2022-09-13T01:39:50;98303.72;;;15.46;79.73
30182;BME280;16990;49.056;9.240;2022-09-13T01:42:27;98285.41;;;15.43;79.98
30182;BME280;16990;49.056;9.240;2022-09-13T01:45:16;98287.59;;;15.36;80.28
30182;BME280;16990;49.056;9.240;2022-09-13T01:47:51;98287.59;;;15.36;80.42
30182;BME280;16990;49.056;9.240;2022-09-13T01:50:21;98289.19;;;15.37;80.07
30182;BME280;16990;49.056;9.240;2022-09-13T01:53:13;98289.22;;;15.31;81.01
30182;BME280;16990;49.056;9.240;2022-09-13T01:55:48;98283.31;;;15.29;81.29
30182;BME280;16990;49.056;9.240;2022-09-13T01:58:22;98283.31;;;15.29;80.75
30182;BME280;16990;49.056;9.240;2022-09-13T02:00:54;98291.41;;;15.24;81.04
30182;BME280;16990;49.056;9.240;2022-09-13T02:03:30;98286.59;;;15.21;81.16
30182;BME280;16990;49.056;9.240;2022-09-13T02:06:05;98288.19;;;15.17;81.18
30182;BME280;16990;49.056;9.240;2022-09-13T02:08:38;98290.91;;;15.17;81.73
30182;BME280;16990;49.056;9.240;2022-09-13T02:11:09;98286.91;;;15.04;82.58
30182;BME280;16990;49.056;9.240;2022-09-13T02:13:39;98292.56;;;15.03;82.94
30182;BME280;16990;49.056;9.240;2022-09-13T02:16:10;98282.59;;;15.03;82.19
30182;BME280;16990;49.056;9.240;2022-09-13T02:18:40;98289.84;;;15.03;82.61
30182;BME280;16990;49.056;9.240;2022-09-13T02:21:13;98287.97;;;14.98;82.71
30182;BME280;16990;49.056;9.240;2022-09-13T02:23:46;98294.41;;;15.13;82.76
30182;BME280;16990;49.056;9.240;2022-09-13T02:26:17;98298.22;;;15.01;83.40
30182;BME280;16990;49.056;9.240;2022-09-13T02:28:47;98301.19;;;15.00;83.15
30182;BME280;16990;49.056;9.240;2022-09-13T02:31:20;98298.22;;;15.01;82.40
30182;BME280;16990;49.056;9.240;2022-09-13T02:33:54;98296.66;;;14.85;83.09
30182;BME280;16990;49.056;9.240;2022-09-13T02:36:23;98290.97;;;14.81;83.62
30182;BME280;16990;49.056;9.240;2022-09-13T02:38:55;98293.16;;;14.74;84.01
30182;BME280;16990;49.056;9.240;2022-09-13T02:41:26;98287.25;;;14.77;84.32
30182;BME280;16990;49.056;9.240;2022-09-13T02:43:56;98282.69;;;14.73;84.52
30182;BME280;16990;49.056;9.240;2022-09-13T02:49:27;98280.25;;;14.66;84.89
30182;BME280;16990;49.056;9.240;2022-09-13T02:52:05;98278.63;;;14.65;84.88
30182;BME280;16990;49.056;9.240;2022-09-13T02:54:37;98285.34;;;14.67;84.63
30182;BME280;16990;49.056;9.240;2022-09-13T02:57:08;98284.56;;;14.62;85.19
30182;BME280;16990;49.056;9.240;2022-09-13T02:59:38;98286.94;;;14.84;84.23
30182;BME280;16990;49.056;9.240;2022-09-13T03:02:07;98300.97;;;14.76;84.83
30182;BME280;16990;49.056;9.240;2022-09-13T03:04:36;98295.00;;;14.89;84.42
30182;BME280;16990;49.056;9.240;2022-09-13T03:07:05;98305.53;;;14.65;84.81
30182;BME280;16990;49.056;9.240;2022-09-13T03:09:35;98307.44;;;14.59;85.23
30182;BME280;16990;49.056;9.240;2022-09-13T03:12:28;98305.84;;;14.58;85.62
30182;BME280;16990;49.056;9.240;2022-09-13T03:15:05;98293.72;;;14.56;85.81
30182;BME280;16990;49.056;9.240;2022-09-13T03:17:45;98298.78;;;14.52;86.00
30182;BME280;16990;49.056;9.240;2022-09-13T03:20:24;98281.31;;;14.50;86.33
30182;BME280;16990;49.056;9.240;2022-09-13T03:26:01;98274.59;;;14.52;85.91
30182;BME280;16990;49.056;9.240;2022-09-13T03:28:37;98258.72;;;14.45;86.68
30182;BME280;16990;49.056;9.240;2022-09-13T03:31:10;98257.91;;;14.45;86.84
30182;BME280;16990;49.056;9.240;2022-09-13T03:33:43;98278.63;;;14.44;87.07
30182;BME280;16990;49.056;9.240;2022-09-13T03:36:14;98286.69;;;14.50;86.62
30182;BME280;16990;49.056;9.240;2022-09-13T03:38:51;98296.88;;;14.94;84.51
30182;BME280;16990;49.056;9.240;2022-09-13T03:41:23;98319.81;;;14.71;83.87
30182;BME280;16990;49.056;9.240;2022-09-13T03:43:55;98322.72;;;14.43;84.77
30182;BME280;16990;49.056;9.240;2022-09-13T03:46:26;98310.38;;;14.27;86.52
30182;BME280;16990;49.056;9.240;2022-09-13T03:48:56;98298.00;;;14.16;87.81
30182;BME280;16990;49.056;9.240;2022-09-13T03:51:25;98286.16;;;14.12;88.58
30182;BME280;16990;49.056;9.240;2022-09-13T03:53:55;98270.81;;;14.12;88.96
30182;BME280;16990;49.056;9.240;2022-09-13T03:56:23;98285.63;;;14.25;88.98
30182;BME280;16990;49.056;9.240;2022-09-13T03:58:50;98281.31;;;14.29;88.58
30182;BME280;16990;49.056;9.240;2022-09-13T04:01:19;98260.59;;;14.14;89.52
30182;BME280;16990;49.056;9.240;2022-09-13T04:03:46;98263.28;;;14.09;89.88
30182;BME280;16990;49.056;9.240;2022-09-13T04:06:13;98244.75;;;14.02;89.76
30182;BME280;16990;49.056;9.240;2022-09-13T04:08:41;98250.13;;;14.02;89.34
30182;BME280;16990;49.056;9.240;2022-09-13T04:11:08;98242.34;;;14.01;89.43
30182;BME280;16990;49.056;9.240;2022-09-13T04:13:34;98250.41;;;13.96;89.88
30182;BME280;16990;49.056;9.240;2022-09-13T04:16:02;98270.00;;;14.22;88.96
30182;BME280;16990;49.056;9.240;2022-09-13T04:18:29;98264.63;;;14.17;88.78
30182;BME280;16990;49.056;9.240;2022-09-13T04:20:57;98264.09;;;13.99;89.94
30182;BME280;16990;49.056;9.240;2022-09-13T04:23:25;98253.06;;;13.86;90.18
30182;BME280;16990;49.056;9.240;2022-09-13T04:25:53;98257.63;;;13.85;90.88
30182;BME280;16990;49.056;9.240;2022-09-13T04:28:21;98257.09;;;13.83;90.97
30182;BME280;16990;49.056;9.240;2022-09-13T04:30:48;98260.31;;;13.95;89.90
30182;BME280;16990;49.056;9.240;2022-09-13T04:33:15;98263.25;;;13.83;89.86
30182;BME280;16990;49.056;9.240;2022-09-13T04:35:42;98290.16;;;13.94;89.75
30182;BME280;16990;49.056;9.240;2022-09-13T04:38:09;98293.09;;;13.82;89.66
30182;BME280;16990;49.056;9.240;2022-09-13T04:40:36;98296.59;;;13.88;89.95
30182;BME280;16990;49.056;9.240;2022-09-13T04:43:04;98309.72;;;13.79;90.20
30182;BME280;16990;49.056;9.240;2022-09-13T04:45:31;98307.09;;;13.99;90.34
30182;BME280;16990;49.056;9.240;2022-09-13T04:47:58;98313.25;;;13.79;89.93
30182;BME280;16990;49.056;9.240;2022-09-13T04:50:24;98299.75;;;13.64;90.78
30182;BME280;16990;49.056;9.240;2022-09-13T04:52:53;98300.06;;;13.73;93.39
30182;BME280;16990;49.056;9.240;2022-09-13T04:55:20;98309.16;;;13.67;92.15
30182;BME280;16990;49.056;9.240;2022-09-13T04:57:51;98308.13;;;13.78;92.63
30182;BME280;16990;49.056;9.240;2022-09-13T05:00:20;98293.56;;;13.58;93.38
30182;BME280;16990;49.056;9.240;2022-09-13T05:02:46;98304.84;;;13.55;93.94
30182;BME280;16990;49.056;9.240;2022-09-13T05:05:13;98313.97;;;13.59;94.41
30182;BME280;16990;49.056;9.240;2022-09-13T05:07:40;98312.38;;;13.64;93.75
30182;BME280;16990;49.056;9.240;2022-09-13T05:10:07;98321.53;;;13.68;93.78
30182;BME280;16990;49.056;9.240;2022-09-13T05:12:34;98311.34;;;13.70;93.76
30182;BME280;16990;49.056;9.240;2022-09-13T05:15:01;98307.56;;;13.71;93.65
30182;BME280;16990;49.056;9.240;2022-09-13T05:17:30;98310.81;;;13.73;93.55
30182;BME280;16990;49.056;9.240;2022-09-13T05:19:56;98315.63;;;13.71;93.41
30182;BME280;16990;49.056;9.240;2022-09-13T05:22:23;98317.22;;;13.67;93.77
30182;BME280;16990;49.056;9.240;2022-09-13T05:24:49;98312.13;;;13.65;93.39
30182;BME280;16990;49.056;9.240;2022-09-13T05:27:16;98312.94;;;13.71;93.68
30182;BME280;16990;49.056;9.240;2022-09-13T05:29:43;98318.63;;;13.74;93.51
30182;BME280;16990;49.056;9.240;2022-09-13T05:32:09;98311.63;;;13.78;93.91
30182;BME280;16990;49.056;9.240;2022-09-13T05:34:37;98313.50;;;13.88;93.99
30182;BME280;16990;49.056;9.240;2022-09-13T05:37:04;98310.28;;;13.86;93.19
30182;BME280;16990;49.056;9.240;2022-09-13T05:39:30;98306.00;;;13.90;93.34
30182;BME280;16990;49.056;9.240;2022-09-13T05:41:57;98316.75;;;13.90;93.04
30182;BME280;16990;49.056;9.240;2022-09-13T05:44:24;98315.69;;;13.91;92.96
30182;BME280;16990;49.056;9.240;2022-09-13T05:46:50;98335.03;;;13.93;93.56
30182;BME280;16990;49.056;9.240;2022-09-13T05:49:17;98335.88;;;13.99;93.17
30182;BME280;16990;49.056;9.240;2022-09-13T05:51:45;98322.13;;;14.00;93.32
30182;BME280;16990;49.056;9.240;2022-09-13T05:54:11;98324.56;;;14.02;93.24
30182;BME280;16990;49.056;9.240;2022-09-13T05:56:38;98320.28;;;14.06;93.19
30182;BME280;16990;49.056;9.240;2022-09-13T05:59:05;98318.41;;;14.12;93.12
30182;BME280;16990;49.056;9.240;2022-09-13T06:01:33;98322.19;;;14.21;93.37
30182;BME280;16990;49.056;9.240;2022-09-13T06:04:00;98325.41;;;14.23;93.63
30182;BME280;16990;49.056;9.240;2022-09-13T06:06:26;98327.03;;;14.29;93.58
30182;BME280;16990;49.056;9.240;2022-09-13T06:08:55;98329.72;;;14.50;92.85
30182;BME280;16990;49.056;9.240;2022-09-13T06:11:24;98326.50;;;14.53;92.36
30182;BME280;16990;49.056;9.240;2022-09-13T06:13:51;98339.47;;;14.56;93.11
30182;BME280;16990;49.056;9.240;2022-09-13T06:16:19;98335.44;;;14.58;92.73
30182;BME280;16990;49.056;9.240;2022-09-13T06:18:46;98350.75;;;14.63;92.95
30182;BME280;16990;49.056;9.240;2022-09-13T06:21:14;98354.25;;;14.68;92.79
30182;BME280;16990;49.056;9.240;2022-09-13T06:23:42;98353.97;;;14.85;91.68
30182;BME280;16990;49.056;9.240;2022-09-13T06:26:12;98346.97;;;14.84;92.40
30182;BME280;16990;49.056;9.240;2022-09-13T06:28:40;98341.59;;;14.89;92.70
30182;BME280;16990;49.056;9.240;2022-09-13T06:31:08;98344.81;;;14.97;92.65
30182;BME280;16990;49.056;9.240;2022-09-13T06:33:36;98328.09;;;15.00;92.69
30182;BME280;16990;49.056;9.240;2022-09-13T06:36:05;98329.44;;;15.02;93.30
30182;BME280;16990;49.056;9.240;2022-09-13T06:38:32;98337.25;;;15.09;92.94
30182;BME280;16990;49.056;9.240;2022-09-13T06:41:00;98330.75;;;15.15;92.62
30182;BME280;16990;49.056;9.240;2022-09-13T06:43:28;98328.88;;;15.21;92.70
30182;BME280;16990;49.056;9.240;2022-09-13T06:45:58;98324.81;;;15.28;92.20
30182;BME280;16990;49.056;9.240;2022-09-13T06:48:25;98321.81;;;15.40;91.75
30182;BME280;16990;49.056;9.240;2022-09-13T06:50:52;98323.38;;;15.51;90.48
30182;BME280;16990;49.056;9.240;2022-09-13T06:53:18;98331.13;;;15.63;89.80
30182;BME280;16990;49.056;9.240;2022-09-13T06:55:45;98321.38;;;15.83;88.08
30182;BME280;16990;49.056;9.240;2022-09-13T06:58:11;98318.66;;;15.88;87.77
30182;BME280;16990;49.056;9.240;2022-09-13T07:00:39;98325.56;;;15.99;87.00
30182;BME280;16990;49.056;9.240;2022-09-13T07:03:06;98303.91;;;16.14;85.64
30182;BME280;16990;49.056;9.240;2022-09-13T07:05:33;98295.47;;;16.26;84.85
30182;BME280;16990;49.056;9.240;2022-09-13T07:07:59;98309.16;;;16.35;84.42
30182;BME280;16990;49.056;9.240;2022-09-13T07:10:26;98308.75;;;16.52;83.67
30182;BME280;16990;49.056;9.240;2022-09-13T07:12:52;98323.41;;;16.75;81.99
30182;BME280;16990;49.056;9.240;2022-09-13T07:15:19;98321.09;;;16.92;80.83
30182;BME280;16990;49.056;9.240;2022-09-13T07:17:47;98314.09;;;16.91;80.20
30182;BME280;16990;49.056;9.240;2022-09-13T07:20:14;98311.47;;;17.10;78.66
30182;BME280;16990;49.056;9.240;2022-09-13T07:22:41;98310.63;;;17.15;78.87
30182;BME280;16990;49.056;9.240;2022-09-13T07:25:08;98313.00;;;17.40;78.17
30182;BME280;16990;49.056;9.240;2022-09-13T07:27:35;98313.47;;;17.48;77.21
30182;BME280;16990;49.056;9.240;2022-09-13T07:30:02;98324.72;;;17.55;77.14
30182;BME280;16990;49.056;9.240;2022-09-13T07:32:30;98317.94;;;17.57;76.84
30182;BME280;16990;49.056;9.240;2022-09-13T07:34:59;98324.38;;;17.61;76.84
30182;BME280;16990;49.056;9.240;2022-09-13T07:37:26;98316.56;;;17.84;75.66
30182;BME280;16990;49.056;9.240;2022-09-13T07:39:52;98303.06;;;18.03;75.03
30182;BME280;16990;49.056;9.240;2022-09-13T07:42:19;98297.25;;;18.10;74.64
30182;BME280;16990;49.056;9.240;2022-09-13T07:44:45;98304.41;;;18.19;74.53
30182;BME280;16990;49.056;9.240;2022-09-13T07:47:12;98294.75;;;18.32;74.44
30182;BME280;16990;49.056;9.240;2022-09-13T07:49:39;98307.31;;;18.42;74.06
30182;BME280;16990;49.056;9.240;2022-09-13T07:52:07;98307.97;;;18.66;72.87
30182;BME280;16990;49.056;9.240;2022-09-13T07:54:33;98307.47;;;18.64;72.16
30182;BME280;16990;49.056;9.240;2022-09-13T07:57:02;98309.53;;;18.73;71.55
30182;BME280;16990;49.056;9.240;2022-09-13T07:59:29;98318.00;;;18.85;70.85
30182;BME280;16990;49.056;9.240;2022-09-13T08:01:55;98316.38;;;18.84;71.50
30182;BME280;16990;49.056;9.240;2022-09-13T08:04:23;98310.78;;;18.94;71.22
30182;BME280;16990;49.056;9.240;2022-09-13T08:06:50;98313.97;;;18.96;70.55
30182;BME280;16990;49.056;9.240;2022-09-13T08:09:18;98321.81;;;18.98;70.71
30182;BME280;16990;49.056;9.240;2022-09-13T08:11:46;98317.31;;;19.07;70.70
30182;BME280;16990;49.056;9.240;2022-09-13T08:14:15;98322.22;;;19.05;71.18
30182;BME280;16990;49.056;9.240;2022-09-13T08:16:42;98318.03;;;19.12;71.03
30182;BME280;16990;49.056;9.240;2022-09-13T08:19:11;98305.38;;;19.22;70.45
30182;BME280;16990;49.056;9.240;2022-09-13T08:21:39;98309.81;;;19.45;69.11
30182;BME280;16990;49.056;9.240;2022-09-13T08:24:12;98318.84;;;19.54;68.81
30182;BME280;16990;49.056;9.240;2022-09-13T08:26:40;98304.56;;;19.63;67.65
30182;BME280;16990;49.056;9.240;2022-09-13T08:29:07;98308.81;;;19.69;67.14
30182;BME280;16990;49.056;9.240;2022-09-13T08:31:33;98303.28;;;19.74;66.40
30182;BME280;16990;49.056;9.240;2022-09-13T08:34:00;98309.09;;;19.81;64.96
30182;BME280;16990;49.056;9.240;2022-09-13T08:36:28;98297.09;;;19.96;65.02
30182;BME280;16990;49.056;9.240;2022-09-13T08:38:56;98292.38;;;20.02;64.76
30182;BME280;16990;49.056;9.240;2022-09-13T08:41:51;98306.91;;;20.06;64.97
30182;BME280;16990;49.056;9.240;2022-09-13T08:44:27;98331.19;;;20.25;63.55
30182;BME280;16990;49.056;9.240;2022-09-13T08:46:58;98321.31;;;20.29;63.69
30182;BME280;16990;49.056;9.240;2022-09-13T08:49:31;98314.63;;;20.35;62.62
30182;BME280;16990;49.056;9.240;2022-09-13T08:52:04;98319.66;;;20.42;61.53
30182;BME280;16990;49.056;9.240;2022-09-13T08:54:37;98322.84;;;20.44;61.31
30182;BME280;16990;49.056;9.240;2022-09-13T08:57:10;98324.66;;;20.48;62.02
30182;BME280;16990;49.056;9.240;2022-09-13T08:59:50;98319.38;;;20.52;62.49
30182;BME280;16990;49.056;9.240;2022-09-13T09:02:27;98312.56;;;20.54;61.26
30182;BME280;16990;49.056;9.240;2022-09-13T09:05:00;98303.63;;;20.76;59.71
30182;BME280;16990;49.056;9.240;2022-09-13T09:07:31;98306.31;;;20.54;60.46
30182;BME280;16990;49.056;9.240;2022-09-13T09:12:32;98308.22;;;20.53;61.93
30182;BME280;16990;49.056;9.240;2022-09-13T09:15:04;98303.91;;;20.52;61.39
30182;BME280;16990;49.056;9.240;2022-09-13T09:17:45;98302.28;;;20.51;61.44
30182;BME280;16990;49.056;9.240;2022-09-13T09:20:25;98302.50;;;20.77;61.48
30182;BME280;16990;49.056;9.240;2022-09-13T09:22:53;98289.91;;;20.81;61.72
30182;BME280;16990;49.056;9.240;2022-09-13T09:25:22;98294.53;;;21.12;61.04
30182;BME280;16990;49.056;9.240;2022-09-13T09:27:50;98310.88;;;21.30;60.08
30182;BME280;16990;49.056;9.240;2022-09-13T09:30:18;98296.31;;;21.25;59.29
30182;BME280;16990;49.056;9.240;2022-09-13T09:33:12;98292.88;;;21.42;59.06
30182;BME280;16990;49.056;9.240;2022-09-13T09:35:50;98303.16;;;21.54;58.98
30182;BME280;16990;49.056;9.240;2022-09-13T09:38:31;98290.19;;;21.51;58.14
30182;BME280;16990;49.056;9.240;2022-09-13T09:40:59;98289.09;;;21.61;57.81
30182;BME280;16990;49.056;9.240;2022-09-13T09:43:34;98290.38;;;21.81;56.77
30182;BME280;16990;49.056;9.240;2022-09-13T09:46:04;98287.19;;;21.70;57.45
30182;BME280;16990;49.056;9.240;2022-09-13T09:48:38;98288.81;;;21.88;57.74
30182;BME280;16990;49.056;9.240;2022-09-13T09:51:07;98279.22;;;22.08;56.73
30182;BME280;16990;49.056;9.240;2022-09-13T09:53:39;98274.56;;;22.18;56.24
30182;BME280;16990;49.056;9.240;2022-09-13T09:56:18;98266.88;;;22.20;56.18
30182;BME280;16990;49.056;9.240;2022-09-13T09:58:49;98268.59;;;22.50;54.27
30182;BME280;16990;49.056;9.240;2022-09-13T10:01:20;98269.88;;;22.70;54.48
30182;BME280;16990;49.056;9.240;2022-09-13T10:03:51;98284.41;;;22.83;54.14
30182;BME280;16990;49.056;9.240;2022-09-13T10:06:20;98288.38;;;22.94;52.68
30182;BME280;16990;49.056;9.240;2022-09-13T10:08:54;98286.28;;;23.09;51.54
30182;BME280;16990;49.056;9.240;2022-09-13T10:11:22;98285.81;;;22.98;52.34
30182;BME280;16990;49.056;9.240;2022-09-13T10:14:00;98285.72;;;23.24;51.77
30182;BME280;16990;49.056;9.240;2022-09-13T10:16:28;98291.75;;;23.39;51.54
30182;BME280;16990;49.056;9.240;2022-09-13T10:19:20;98289.81;;;23.39;51.92
30182;BME280;16990;49.056;9.240;2022-09-13T10:21:59;98279.47;;;23.53;51.25
30182;BME280;16990;49.056;9.240;2022-09-13T10:24:26;98293.97;;;23.45;51.32
30182;BME280;16990;49.056;9.240;2022-09-13T10:26:53;98288.88;;;23.65;50.95
30182;BME280;16990;49.056;9.240;2022-09-13T10:29:22;98284.19;;;23.65;50.82
30182;BME280;16990;49.056;9.240;2022-09-13T10:31:51;98292.06;;;23.75;50.48
30182;BME280;16990;49.056;9.240;2022-09-13T10:34:22;98289.88;;;23.90;50.74
30182;BME280;16990;49.056;9.240;2022-09-13T10:36:53;98288.94;;;24.07;49.50
30182;BME280;16990;49.056;9.240;2022-09-13T10:39:22;98285.78;;;24.38;48.11
30182;BME280;16990;49.056;9.240;2022-09-13T10:41:53;98288.16;;;24.39;47.61
30182;BME280;16990;49.056;9.240;2022-09-13T10:44:30;98274.59;;;24.31;47.81
30182;BME280;16990;49.056;9.240;2022-09-13T10:47:01;98277.91;;;24.36;48.02
30182;BME280;16990;49.056;9.240;2022-09-13T10:49:39;98280.09;;;24.43;48.22
30182;BME280;16990;49.056;9.240;2022-09-13T10:52:29;98272.00;;;24.80;46.29
30182;BME280;16990;49.056;9.240;2022-09-13T10:55:24;98270.00;;;25.01;44.49
30182;BME280;16990;49.056;9.240;2022-09-13T10:57:52;98268.63;;;24.95;44.78
30182;BME280;16990;49.056;9.240;2022-09-13T11:00:22;98253.03;;;25.08;44.28
30182;BME280;16990;49.056;9.240;2022-09-13T11:03:06;98264.09;;;25.12;43.96
30182;BME280;16990;49.056;9.240;2022-09-13T11:05:41;98265.53;;;25.09;43.98
30182;BME280;16990;49.056;9.240;2022-09-13T11:08:24;98265.22;;;24.98;45.60
30182;BME280;16990;49.056;9.240;2022-09-13T11:11:04;98264.75;;;24.96;44.81
30182;BME280;16990;49.056;9.240;2022-09-13T11:13:41;98272.50;;;24.94;44.03
30182;BME280;16990;49.056;9.240;2022-09-13T11:16:20;98270.88;;;24.81;43.93
30182;BME280;16990;49.056;9.240;2022-09-13T11:18:59;98276.34;;;24.81;44.19
30182;BME280;16990;49.056;9.240;2022-09-13T11:21:44;98277.38;;;24.76;44.20
30182;BME280;16990;49.056;9.240;2022-09-13T11:24:38;98283.84;;;24.72;44.66
30182;BME280;16990;49.056;9.240;2022-09-13T11:27:13;98292.25;;;24.54;44.87
30182;BME280;16990;49.056;9.240;2022-09-13T11:29:59;98302.53;;;24.70;44.14
30182;BME280;16990;49.056;9.240;2022-09-13T11:32:46;98308.66;;;24.67;44.38
30182;BME280;16990;49.056;9.240;2022-09-13T11:35:32;98291.16;;;24.80;44.00
30182;BME280;16990;49.056;9.240;2022-09-13T11:38:07;98302.31;;;24.75;45.85
30182;BME280;16990;49.056;9.240;2022-09-13T11:40:44;98294.34;;;24.82;45.69
30182;BME280;16990;49.056;9.240;2022-09-13T11:43:25;98293.16;;;24.71;46.32
30182;BME280;16990;49.056;9.240;2022-09-13T11:46:01;98296.16;;;24.78;44.87
30182;BME280;16990;49.056;9.240;2022-09-13T11:48:57;98278.63;;;24.79;44.53
30182;BME280;16990;49.056;9.240;2022-09-13T11:51:37;98269.75;;;24.82;44.25
30182;BME280;16990;49.056;9.240;2022-09-13T11:54:16;98271.34;;;24.83;44.05
30182;BME280;16990;49.056;9.240;2022-09-13T11:56:49;98263.03;;;25.04;42.94
30182;BME280;16990;49.056;9.240;2022-09-13T11:59:23;98263.38;;;24.90;43.59
30182;BME280;16990;49.056;9.240;2022-09-13T12:01:57;98257.69;;;24.83;43.66
30182;BME280;16990;49.056;9.240;2022-09-13T12:04:30;98254.03;;;25.03;43.75
30182;BME280;16990;49.056;9.240;2022-09-13T12:07:02;98247.44;;;25.04;43.22
30182;BME280;16990;49.056;9.240;2022-09-13T12:09:33;98250.31;;;25.20;42.01
30182;BME280;16990;49.056;9.240;2022-09-13T12:12:04;98243.31;;;24.98;43.49
30182;BME280;16990;49.056;9.240;2022-09-13T12:14:37;98240.34;;;24.91;43.64
30182;BME280;16990;49.056;9.240;2022-09-13T12:17:16;98250.81;;;24.65;44.24
30182;BME280;16990;49.056;9.240;2022-09-13T12:19:51;98249.00;;;24.81;43.67
30182;BME280;16990;49.056;9.240;2022-09-13T12:22:22;98246.28;;;25.05;42.44
30182;BME280;16990;49.056;9.240;2022-09-13T12:24:50;98242.69;;;25.26;42.35
30182;BME280;16990;49.056;9.240;2022-09-13T12:27:23;98233.19;;;25.23;43.04
30182;BME280;16990;49.056;9.240;2022-09-13T12:29:54;98227.94;;;25.55;40.53
30182;BME280;16990;49.056;9.240;2022-09-13T12:32:22;98227.34;;;25.62;39.57
30182;BME280;16990;49.056;9.240;2022-09-13T12:34:55;98225.69;;;25.85;38.77
30182;BME280;16990;49.056;9.240;2022-09-13T12:37:37;98223.13;;;26.05;38.10
30182;BME280;16990;49.056;9.240;2022-09-13T12:40:30;98215.56;;;26.14;38.31
30182;BME280;16990;49.056;9.240;2022-09-13T12:43:10;98218.91;;;26.51;36.76
30182;BME280;16990;49.056;9.240;2022-09-13T12:45:58;98199.88;;;26.43;37.20
30182;BME280;16990;49.056;9.240;2022-09-13T12:48:37;98206.97;;;26.44;37.25
30182;BME280;16990;49.056;9.240;2022-09-13T12:51:22;98192.44;;;26.56;37.17
30182;BME280;16990;49.056;9.240;2022-09-13T12:54:10;98187.09;;;26.79;36.25
30182;BME280;16990;49.056;9.240;2022-09-13T12:57:08;98183.03;;;27.04;35.15
30182;BME280;16990;49.056;9.240;2022-09-13T12:59:51;98197.00;;;26.99;35.72
30182;BME280;16990;49.056;9.240;2022-09-13T13:02:30;98200.72;;;27.07;34.45
30182;BME280;16990;49.056;9.240;2022-09-13T13:05:02;98195.78;;;26.81;35.27
30182;BME280;16990;49.056;9.240;2022-09-13T13:07:34;98194.47;;;26.75;36.42
30182;BME280;16990;49.056;9.240;2022-09-13T13:10:04;98184.28;;;26.59;36.18
30182;BME280;16990;49.056;9.240;2022-09-13T13:12:33;98178.34;;;26.57;35.96
30182;BME280;16990;49.056;9.240;2022-09-13T13:15:05;98173.56;;;26.54;36.00
30182;BME280;16990;49.056;9.240;2022-09-13T13:17:51;98174.03;;;26.56;36.14
30182;BME280;16990;49.056;9.240;2022-09-13T13:20:40;98175.50;;;26.69;34.81
30182;BME280;16990;49.056;9.240;2022-09-13T13:23:25;98162.78;;;26.61;34.94
30182;BME280;16990;49.056;9.240;2022-09-13T13:26:00;98166.66;;;26.76;34.42
30182;BME280;16990;49.056;9.240;2022-09-13T13:28:50;98155.81;;;26.80;34.44
30182;BME280;16990;49.056;9.240;2022-09-13T13:31:33;98153.94;;;26.68;35.92
30182;BME280;16990;49.056;9.240;2022-09-13T13:34:02;98151.38;;;26.59;36.72
30182;BME280;16990;49.056;9.240;2022-09-13T13:36:30;98149.53;;;26.63;37.01